createdAt,value
2018-11-25T00:00:23.917Z,37.53
2018-11-25T00:02:53.031Z,35.83
2018-11-25T00:05:22.683Z,35.30
2018-11-25T00:07:52.057Z,40.00
2018-11-25T00:10:22.345Z,37.13
2018-11-25T00:12:51.943Z,39.67
2018-11-25T00:15:22.516Z,38.60
2018-11-25T00:17:51.630Z,41.23
2018-11-25T00:20:21.420Z,40.90
2018-11-25T00:22:50.734Z,40.03
2018-11-25T00:25:19.809Z,39.87
2018-11-25T00:27:49.861Z,37.77
2018-11-25T00:30:18.970Z,40.87
2018-11-25T00:32:48.007Z,42.87
2018-11-25T00:35:18.083Z,39.90
2018-11-25T00:37:48.484Z,37.80
2018-11-25T00:40:16.598Z,41.43
2018-11-25T00:42:46.314Z,39.70
2018-11-25T00:45:20.368Z,41.03
2018-11-25T00:47:50.106Z,41.87
2018-11-25T00:50:19.579Z,40.27
2018-11-25T00:52:48.743Z,38.77
2018-11-25T00:55:18.612Z,41.50
2018-11-25T00:57:48.951Z,40.17
2018-11-25T01:00:21.560Z,44.17
2018-11-25T01:02:51.810Z,45.00
2018-11-25T01:05:25.012Z,45.10
2018-11-25T01:07:54.146Z,42.23
2018-11-25T01:10:23.874Z,45.87
2018-11-25T01:12:53.360Z,44.83
2018-11-25T01:15:23.275Z,43.63
2018-11-25T01:17:52.366Z,41.93
2018-11-25T01:20:22.835Z,44.67
2018-11-25T01:22:53.234Z,40.93
2018-11-25T01:25:22.839Z,43.37
2018-11-25T01:27:52.345Z,42.10
2018-11-25T01:30:21.415Z,43.03
2018-11-25T01:32:50.574Z,41.07
2018-11-25T01:35:19.642Z,42.30
2018-11-25T01:37:48.950Z,42.53
2018-11-25T01:40:18.343Z,40.67
2018-11-25T01:42:47.543Z,41.10
2018-11-25T01:45:17.572Z,40.83
2018-11-25T01:47:46.844Z,42.10
2018-11-25T01:50:18.163Z,40.70
2018-11-25T01:52:47.919Z,40.77
2018-11-25T01:55:18.442Z,42.73
2018-11-25T01:57:47.587Z,44.13
2018-11-25T02:00:19.235Z,39.30
2018-11-25T02:02:48.755Z,40.67
2018-11-25T02:05:17.884Z,40.80
2018-11-25T02:07:47.066Z,39.00
2018-11-25T02:10:17.184Z,38.67
2018-11-25T02:12:46.593Z,41.13
2018-11-25T02:15:16.608Z,39.70
2018-11-25T02:17:45.750Z,39.23
2018-11-25T02:20:22.607Z,39.80
2018-11-25T02:22:53.725Z,36.83
2018-11-25T02:25:22.776Z,38.67
2018-11-25T02:27:52.179Z,38.50
2018-11-25T02:30:21.588Z,39.57
2018-11-25T02:32:50.722Z,39.23
2018-11-25T02:35:19.869Z,40.80
2018-11-25T02:37:49.455Z,39.53
2018-11-25T02:40:18.943Z,40.10
2018-11-25T02:42:48.077Z,38.93
2018-11-25T02:45:17.964Z,38.73
2018-11-25T02:47:47.454Z,39.90
2018-11-25T02:50:23.152Z,39.77
2018-11-25T02:52:52.310Z,39.60
2018-11-25T02:55:22.566Z,40.60
2018-11-25T02:57:51.761Z,39.97
2018-11-25T03:00:20.923Z,38.80
2018-11-25T03:02:49.998Z,37.73
2018-11-25T03:05:19.106Z,40.80
2018-11-25T03:07:48.200Z,40.63
2018-11-25T03:10:17.426Z,39.53
2018-11-25T03:12:46.495Z,39.47
2018-11-25T03:15:16.615Z,42.10
2018-11-25T03:17:45.934Z,38.43
2018-11-25T03:20:15.906Z,39.10
2018-11-25T03:22:44.943Z,39.53
2018-11-25T03:25:18.917Z,37.63
2018-11-25T03:27:48.258Z,39.80
2018-11-25T03:30:19.571Z,39.13
2018-11-25T03:32:51.396Z,38.07
2018-11-25T03:35:20.929Z,39.20
2018-11-25T03:37:49.997Z,37.83
2018-11-25T03:40:19.668Z,37.63
2018-11-25T03:42:48.846Z,38.20
2018-11-25T03:45:19.258Z,38.93
2018-11-25T03:47:48.645Z,35.77
2018-11-25T03:50:18.250Z,38.27
2018-11-25T03:52:47.699Z,38.13
2018-11-25T03:55:17.344Z,37.10
2018-11-25T03:57:46.536Z,38.10
2018-11-25T04:00:23.342Z,34.93
2018-11-25T04:02:53.909Z,36.40
2018-11-25T04:05:23.356Z,37.87
2018-11-25T04:07:52.446Z,38.50
2018-11-25T04:10:21.740Z,35.97
2018-11-25T04:12:50.879Z,35.43
2018-11-25T04:15:20.338Z,37.43
2018-11-25T04:17:49.461Z,36.37
2018-11-25T04:20:20.229Z,35.27
2018-11-25T04:22:49.842Z,33.53
2018-11-25T04:25:19.288Z,34.23
2018-11-25T04:27:48.367Z,36.50
2018-11-25T04:30:19.864Z,36.27
2018-11-25T04:32:50.562Z,34.53
2018-11-25T04:35:19.806Z,37.63
2018-11-25T04:37:48.934Z,37.93
2018-11-25T04:40:18.636Z,36.77
2018-11-25T04:42:47.750Z,38.47
2018-11-25T04:45:17.425Z,36.27
2018-11-25T04:47:47.142Z,36.77
2018-11-25T04:50:17.131Z,39.30
2018-11-25T04:52:46.575Z,39.97
2018-11-25T04:55:15.752Z,40.90
2018-11-25T04:57:47.685Z,39.97
2018-11-25T05:00:17.163Z,43.53
2018-11-25T05:02:46.196Z,40.57
2018-11-25T05:05:15.957Z,41.47
2018-11-25T05:07:45.010Z,39.80
2018-11-25T05:10:16.348Z,43.63
2018-11-25T05:12:45.543Z,42.47
2018-11-25T05:15:16.160Z,42.67
2018-11-25T05:17:45.197Z,43.17
2018-11-25T05:20:14.931Z,42.17
2018-11-25T05:22:43.993Z,40.27
2018-11-25T05:25:15.280Z,44.67
2018-11-25T05:27:44.394Z,48.23
2018-11-25T05:30:16.564Z,44.10
2018-11-25T05:32:46.019Z,47.00
2018-11-25T05:35:18.087Z,42.93
2018-11-25T05:37:47.204Z,42.33
2018-11-25T05:40:16.783Z,46.17
2018-11-25T05:42:45.921Z,46.13
2018-11-25T05:45:19.110Z,46.60
2018-11-25T05:47:48.253Z,47.60
2018-11-25T05:50:18.582Z,44.57
2018-11-25T05:52:47.787Z,45.27
2018-11-25T05:55:17.119Z,45.23
2018-11-25T05:57:46.993Z,47.67
2018-11-25T06:00:19.431Z,44.70
2018-11-25T06:02:48.485Z,45.73
2018-11-25T06:05:17.646Z,44.13
2018-11-25T06:07:46.702Z,46.67
2018-11-25T06:10:15.840Z,44.17
2018-11-25T06:12:44.927Z,45.83
2018-11-25T06:15:14.638Z,45.23
2018-11-25T06:17:43.724Z,45.53
2018-11-25T06:20:14.694Z,45.13
2018-11-25T06:22:44.251Z,45.10
2018-11-25T06:25:14.538Z,46.87
2018-11-25T06:27:43.647Z,47.53
2018-11-25T06:30:13.970Z,44.83
2018-11-25T06:32:43.068Z,46.17
2018-11-25T06:35:15.353Z,46.57
2018-11-25T06:37:44.495Z,45.70
2018-11-25T06:40:16.304Z,44.90
2018-11-25T06:42:45.558Z,44.93
2018-11-25T06:45:17.016Z,45.20
2018-11-25T06:47:46.087Z,45.07
2018-11-25T06:50:15.316Z,46.40
2018-11-25T06:52:44.438Z,45.50
2018-11-25T06:55:14.027Z,45.47
2018-11-25T06:57:43.165Z,46.30
2018-11-25T07:00:14.729Z,45.07
2018-11-25T07:02:44.214Z,46.70
2018-11-25T07:05:13.678Z,43.97
2018-11-25T07:07:43.145Z,47.07
2018-11-25T07:10:16.470Z,46.67
2018-11-25T07:12:45.736Z,50.27
2018-11-25T07:15:16.602Z,44.93
2018-11-25T07:17:45.709Z,46.53
2018-11-25T07:20:16.351Z,46.63
2018-11-25T07:22:45.526Z,44.77
2018-11-25T07:25:17.523Z,49.77
2018-11-25T07:27:46.633Z,47.57
2018-11-25T07:30:20.068Z,47.57
2018-11-25T07:32:55.677Z,48.27
2018-11-25T07:35:27.145Z,49.83
2018-11-25T07:37:56.316Z,49.33
2018-11-25T07:40:26.034Z,49.50
2018-11-25T07:42:55.192Z,46.87
2018-11-25T07:45:30.105Z,48.60
2018-11-25T07:47:54.344Z,45.60
2018-11-25T07:50:23.391Z,48.73
2018-11-25T07:52:52.834Z,47.73
2018-11-25T07:55:23.036Z,46.70
2018-11-25T07:57:53.637Z,47.43
2018-11-25T08:00:23.998Z,49.60
2018-11-25T08:02:53.008Z,45.30
2018-11-25T08:05:23.155Z,46.07
2018-11-25T08:07:52.228Z,47.03
2018-11-25T08:10:21.371Z,47.83
2018-11-25T08:12:50.421Z,46.07
2018-11-25T08:15:20.415Z,47.93
2018-11-25T08:17:49.518Z,48.33
2018-11-25T08:20:20.476Z,49.53
2018-11-25T08:22:49.866Z,46.27
2018-11-25T08:25:21.754Z,50.60
2018-11-25T08:27:50.909Z,50.97
2018-11-25T08:30:22.011Z,46.63
2018-11-25T08:32:51.468Z,57.80
2018-11-25T08:35:20.777Z,53.60
2018-11-25T08:37:49.862Z,48.97
2018-11-25T08:40:20.065Z,48.40
2018-11-25T08:42:49.132Z,48.60
2018-11-25T08:45:18.379Z,50.57
2018-11-25T08:47:47.539Z,53.30
2018-11-25T08:50:18.497Z,49.77
2018-11-25T08:52:49.606Z,48.77
2018-11-25T08:55:21.743Z,60.57
2018-11-25T08:57:50.858Z,56.40
2018-11-25T09:00:21.961Z,52.40
2018-11-25T09:02:51.841Z,50.53
2018-11-25T09:05:20.912Z,52.57
2018-11-25T09:07:49.987Z,48.83
2018-11-25T09:10:20.514Z,50.47
2018-11-25T09:12:55.969Z,54.23
2018-11-25T09:15:26.032Z,56.40
2018-11-25T09:17:55.124Z,52.73
2018-11-25T09:20:24.352Z,53.90
2018-11-25T09:22:53.527Z,52.70
2018-11-25T09:25:25.995Z,52.63
2018-11-25T09:27:55.430Z,56.40
2018-11-25T09:30:25.738Z,53.80
2018-11-25T09:32:55.182Z,55.20
2018-11-25T09:35:24.713Z,56.53
2018-11-25T09:37:53.883Z,56.40
2018-11-25T09:40:25.398Z,53.97
2018-11-25T09:42:54.855Z,55.10
2018-11-25T09:45:24.324Z,54.40
2018-11-25T09:47:53.441Z,57.10
2018-11-25T09:50:23.203Z,56.03
2018-11-25T09:52:52.390Z,57.37
2018-11-25T09:55:25.353Z,59.87
2018-11-25T09:57:58.448Z,61.87
2018-11-25T10:00:30.986Z,58.33
2018-11-25T10:03:00.138Z,61.07
2018-11-25T10:05:29.562Z,63.33
2018-11-25T10:07:58.651Z,63.30
2018-11-25T10:10:27.753Z,63.80
2018-11-25T10:12:56.838Z,64.93
2018-11-25T10:15:27.447Z,65.17
2018-11-25T10:17:59.651Z,72.20
2018-11-25T10:20:31.425Z,59.67
2018-11-25T10:23:00.891Z,63.70
2018-11-25T10:25:29.999Z,59.33
2018-11-25T10:27:59.121Z,66.30
2018-11-25T10:30:29.552Z,60.80
2018-11-25T10:33:03.285Z,64.97
2018-11-25T10:35:32.339Z,66.47
2018-11-25T10:38:01.426Z,62.87
2018-11-25T10:40:30.507Z,63.50
2018-11-25T10:42:59.587Z,65.60
2018-11-25T10:45:29.194Z,64.00
2018-11-25T10:47:59.104Z,64.43
2018-11-25T10:50:28.233Z,61.47
2018-11-25T10:52:57.350Z,57.20
2018-11-25T10:55:26.403Z,59.07
2018-11-25T10:57:55.564Z,54.70
2018-11-25T11:00:34.078Z,55.60
2018-11-25T11:03:08.367Z,53.97
2018-11-25T11:05:43.003Z,50.83
2018-11-25T11:08:12.173Z,53.13
2018-11-25T11:10:41.579Z,48.93
2018-11-25T11:13:11.212Z,51.07
2018-11-25T11:15:40.229Z,50.07
2018-11-25T11:18:09.301Z,52.20
2018-11-25T11:20:38.378Z,49.53
2018-11-25T11:23:07.563Z,49.47
2018-11-25T11:25:36.618Z,48.23
2018-11-25T11:28:05.842Z,49.50
2018-11-25T11:30:35.082Z,47.33
2018-11-25T11:33:04.506Z,47.97
2018-11-25T11:35:34.902Z,47.83
2018-11-25T11:38:05.283Z,48.03
2018-11-25T11:40:36.039Z,49.17
2018-11-25T11:43:07.309Z,48.07
2018-11-25T11:45:38.973Z,46.00
2018-11-25T11:48:10.300Z,45.90
2018-11-25T11:50:40.511Z,49.07
2018-11-25T11:53:10.632Z,45.23
2018-11-25T11:55:43.651Z,45.50
2018-11-25T11:58:15.546Z,46.33
2018-11-25T12:00:46.400Z,46.10
2018-11-25T12:03:26.144Z,44.97
2018-11-25T12:05:49.106Z,46.67
2018-11-25T12:08:19.171Z,45.87
2018-11-25T12:10:48.267Z,44.73
2018-11-25T12:13:17.996Z,45.33
2018-11-25T12:15:47.075Z,45.30
2018-11-25T12:18:17.413Z,45.53
2018-11-25T12:20:49.817Z,44.67
2018-11-25T12:23:22.864Z,42.83
2018-11-25T12:25:59.907Z,45.00
2018-11-25T12:28:30.959Z,44.73
2018-11-25T12:31:04.101Z,43.20
2018-11-25T12:33:37.469Z,43.93
2018-11-25T12:36:09.430Z,45.03
2018-11-25T12:38:42.097Z,42.93
2018-11-25T12:41:15.634Z,40.83
2018-11-25T12:43:47.012Z,42.97
2018-11-25T12:46:18.653Z,43.47
2018-11-25T12:48:50.703Z,43.80
2018-11-25T12:51:28.673Z,42.83
2018-11-25T12:54:03.148Z,43.33
2018-11-25T12:56:38.883Z,42.30
2018-11-25T12:59:13.764Z,42.53
2018-11-25T13:01:50.108Z,42.17
2018-11-25T13:04:39.090Z,46.43
2018-11-25T13:07:23.799Z,45.83
2018-11-25T13:10:06.300Z,41.07
2018-11-25T13:12:48.497Z,44.97
2018-11-25T13:15:27.387Z,40.63
2018-11-25T13:18:05.849Z,42.37
2018-11-25T13:20:40.902Z,43.63
2018-11-25T13:23:18.809Z,39.83
2018-11-25T13:26:01.355Z,39.93
2018-11-25T13:28:37.047Z,40.20
2018-11-25T13:31:19.880Z,41.07
2018-11-25T13:33:55.191Z,41.13
2018-11-25T13:36:30.199Z,46.27
2018-11-25T13:39:07.466Z,43.53
2018-11-25T13:41:48.226Z,45.10
2018-11-25T13:44:17.457Z,42.43
2018-11-25T13:46:47.399Z,42.00
2018-11-25T13:49:21.998Z,41.70
2018-11-25T13:51:54.706Z,42.10
2018-11-25T13:54:27.399Z,42.80
2018-11-25T13:56:57.553Z,41.90
2018-11-25T13:59:28.146Z,44.30
2018-11-25T14:02:02.037Z,43.73
2018-11-25T14:04:36.011Z,44.57
2018-11-25T14:07:07.998Z,44.03
2018-11-25T14:09:39.970Z,45.70
2018-11-25T14:12:12.154Z,44.73
2018-11-25T14:14:43.656Z,50.17
2018-11-25T14:17:14.630Z,43.20
2018-11-25T14:19:45.850Z,45.03
2018-11-25T14:22:18.323Z,41.33
2018-11-25T14:24:50.602Z,43.87
2018-11-25T14:27:23.178Z,41.47
2018-11-25T14:29:55.075Z,42.83
2018-11-25T14:32:26.103Z,41.37
2018-11-25T14:34:57.716Z,39.70
2018-11-25T14:37:30.409Z,42.43
2018-11-25T14:40:02.025Z,38.73
2018-11-25T14:42:38.872Z,38.03
2018-11-25T14:45:15.121Z,41.83
2018-11-25T14:47:47.798Z,38.60
2018-11-25T14:50:20.521Z,39.87
2018-11-25T14:52:51.431Z,39.33
2018-11-25T14:55:20.948Z,37.13
2018-11-25T14:57:50.488Z,40.10
2018-11-25T15:00:21.137Z,35.57
2018-11-25T15:02:57.089Z,39.03
2018-11-25T15:05:35.858Z,36.20
2018-11-25T15:08:05.081Z,34.47
2018-11-25T15:10:34.404Z,42.70
2018-11-25T15:13:03.554Z,37.10
2018-11-25T15:15:32.727Z,32.83
2018-11-25T15:18:01.796Z,34.57
2018-11-25T15:20:30.914Z,33.10
2018-11-25T15:23:01.820Z,34.47
2018-11-25T15:25:33.341Z,33.63
2018-11-25T15:28:02.463Z,33.20
2018-11-25T15:30:31.618Z,32.20
2018-11-25T15:33:00.884Z,32.70
2018-11-25T15:35:30.035Z,33.67
2018-11-25T15:37:59.596Z,34.27
2018-11-25T15:40:31.082Z,33.53
2018-11-25T15:43:00.278Z,32.23
2018-11-25T15:45:29.521Z,31.03
2018-11-25T15:48:05.073Z,33.50
2018-11-25T15:50:34.175Z,31.90
2018-11-25T15:53:03.356Z,31.07
2018-11-25T15:55:32.419Z,32.00
2018-11-25T15:58:01.580Z,30.10
2018-11-25T16:00:30.686Z,28.57
2018-11-25T16:02:59.828Z,30.67
2018-11-25T16:05:33.253Z,29.93
2018-11-25T16:08:02.536Z,29.83
2018-11-25T16:10:31.653Z,29.97
2018-11-25T16:13:00.772Z,32.37
2018-11-25T16:15:29.948Z,31.30
2018-11-25T16:17:59.228Z,28.93
2018-11-25T16:20:28.999Z,28.37
2018-11-25T16:23:01.450Z,27.70
2018-11-25T16:25:41.799Z,29.60
2018-11-25T16:28:13.246Z,36.47
2018-11-25T16:30:44.683Z,31.83
2018-11-25T16:33:13.849Z,27.87
2018-11-25T16:35:42.891Z,29.97
2018-11-25T16:38:12.036Z,29.67
2018-11-25T16:40:41.090Z,31.50
2018-11-25T16:43:10.183Z,30.73
2018-11-25T16:45:39.213Z,29.00
2018-11-25T16:48:08.678Z,29.37
2018-11-25T16:50:37.763Z,32.87
2018-11-25T16:53:07.263Z,30.27
2018-11-25T16:55:36.745Z,31.47
2018-11-25T16:58:06.374Z,34.00
2018-11-25T17:00:35.556Z,31.37
2018-11-25T17:03:04.745Z,30.80
2018-11-25T17:05:35.712Z,30.97
2018-11-25T17:08:23.740Z,33.50
2018-11-25T17:10:53.487Z,33.37
2018-11-25T17:13:22.559Z,32.67
2018-11-25T17:15:51.699Z,32.17
2018-11-25T17:18:20.844Z,30.17
2018-11-25T17:20:50.410Z,32.13
2018-11-25T17:23:19.509Z,30.47
2018-11-25T17:25:48.570Z,31.90
2018-11-25T17:28:17.659Z,32.07
2018-11-25T17:30:46.714Z,33.13
2018-11-25T17:37:50.839Z,25.87
2018-11-25T17:44:55.009Z,25.37
2018-11-25T17:52:02.962Z,28.43
2018-11-25T17:59:07.079Z,26.03
2018-11-25T18:06:11.283Z,26.27
2018-11-25T18:13:27.906Z,26.40
2018-11-25T18:20:51.113Z,29.03
2018-11-25T18:28:00.305Z,27.40
2018-11-25T18:34:59.486Z,28.80
2018-11-25T18:42:03.622Z,29.57
2018-11-25T18:49:10.163Z,29.80
2018-11-25T18:56:14.295Z,31.43
2018-11-25T19:03:21.498Z,34.30
2018-11-25T19:10:25.579Z,34.97
2018-11-25T19:17:32.624Z,37.73
2018-11-25T19:24:38.734Z,34.70
2018-11-25T19:31:42.906Z,35.30
2018-11-25T19:38:47.071Z,35.80
2018-11-25T19:45:51.163Z,37.40
2018-11-25T19:52:59.109Z,37.33
2018-11-25T20:00:03.247Z,38.83
2018-11-25T20:07:07.355Z,41.10
2018-11-25T20:14:11.622Z,41.00
2018-11-25T20:21:20.981Z,41.47
2018-11-25T20:28:25.123Z,41.50
2018-11-25T20:35:29.598Z,42.07
2018-11-25T20:42:33.781Z,46.40
2018-11-25T20:49:38.045Z,45.00
2018-11-25T20:56:42.155Z,43.97
2018-11-25T21:03:46.508Z,40.07
2018-11-25T21:10:50.718Z,38.93
2018-11-25T21:17:54.791Z,38.63
2018-11-25T21:24:58.937Z,37.77
2018-11-25T21:32:05.071Z,37.20
2018-11-25T21:39:10.569Z,37.17
2018-11-25T21:46:15.290Z,39.17
2018-11-25T21:53:24.817Z,35.53
2018-11-25T22:00:28.990Z,37.53
2018-11-25T22:07:33.293Z,34.37
2018-11-25T22:14:37.610Z,35.77
2018-11-25T22:21:41.835Z,35.97
2018-11-25T22:28:45.947Z,35.83
2018-11-25T22:35:50.061Z,37.63
2018-11-25T22:42:54.288Z,35.07
2018-11-25T22:49:58.381Z,36.40
2018-11-25T22:57:02.451Z,32.33
2018-11-25T23:04:19.696Z,33.83
2018-11-25T23:11:23.785Z,32.70
2018-11-25T23:18:27.860Z,33.60
2018-11-25T23:25:32.009Z,33.70
2018-11-25T23:32:37.798Z,32.57
2018-11-25T23:39:41.820Z,32.57
2018-11-25T23:46:45.877Z,32.43
2018-11-25T23:53:49.945Z,31.93
